Time;durP1;ratioP1;P1;durP2;ratioP2;P2;SDS_P1;SDS_P2;PMS_P1;PMS_P2;Temp;Humidity;BMP_temperature;BMP_pressure;BME280_temperature;BME280_humidity;BME280_pressure;Samples;Min_cycle;Max_cycle;Signal;HPM_P1;HPM_P2
2023/11/19 00:02:01;;;;;;;12.88;6.47;;;;;;;4.72;100.00;100824.75;5113878;28;20044;-42
2023/11/19 00:04:31;;;;;;;12.85;6.55;;;;;;;4.71;100.00;100833.59;5113944;28;20058;-42
2023/11/19 00:07:03;;;;;;;12.07;6.85;;;;;;;4.77;100.00;100822.88;5113117;28;20047;-43
2023/11/19 00:09:32;;;;;;;12.38;6.78;;;;;;;4.75;100.00;100817.63;5112664;28;20039;-42
2023/11/19 00:12:01;;;;;;;11.07;6.78;;;;;;;4.68;100.00;100818.69;5112629;28;20047;-43
2023/11/19 00:14:30;;;;;;;11.27;6.53;;;;;;;4.62;100.00;100823.28;5112626;28;20058;-42
2023/11/19 00:16:58;;;;;;;11.77;6.38;;;;;;;4.75;100.00;100814.13;5112526;28;20048;-43
2023/11/19 00:19:27;;;;;;;11.50;6.22;;;;;;;4.80;100.00;100807.78;5112418;28;20048;-43
2023/11/19 00:21:57;;;;;;;12.27;6.20;;;;;;;4.65;100.00;100807.38;5112324;28;20047;-44
2023/11/19 00:24:28;;;;;;;11.93;6.47;;;;;;;4.78;100.00;100798.19;5112325;28;20454;-42
2023/11/19 00:26:56;;;;;;;11.15;6.32;;;;;;;4.76;100.00;100810.56;5112140;28;20201;-42
2023/11/19 00:29:24;;;;;;;10.77;6.35;;;;;;;4.73;100.00;100815.91;5112282;28;20130;-43
2023/11/19 00:31:53;;;;;;;11.40;6.47;;;;;;;4.81;100.00;100819.22;5112305;28;20051;-42
2023/11/19 00:34:22;;;;;;;12.93;6.60;;;;;;;4.73;100.00;100823.84;5112043;28;20400;-43
2023/11/19 00:36:51;;;;;;;10.93;6.40;;;;;;;4.68;100.00;100818.69;5112113;28;20051;-43
2023/11/19 00:39:21;;;;;;;12.23;6.38;;;;;;;4.79;100.00;100821.91;5112222;28;20135;-43
2023/11/19 00:41:49;;;;;;;11.30;6.53;;;;;;;4.87;100.00;100819.94;5111794;28;20044;-43
2023/11/19 00:44:19;;;;;;;10.95;6.18;;;;;;;4.90;100.00;100824.25;5111494;28;20096;-42
2023/11/19 00:46:48;;;;;;;11.77;6.00;;;;;;;4.90;100.00;100818.97;5111572;28;20101;-42
2023/11/19 00:49:16;;;;;;;11.35;6.07;;;;;;;4.76;100.00;100811.44;5111778;28;20051;-42
2023/11/19 00:51:45;;;;;;;11.52;6.03;;;;;;;4.87;100.00;100816.44;5111678;28;20126;-42
2023/11/19 00:54:13;;;;;;;12.73;7.15;;;;;;;4.89;100.00;100817.25;5111501;28;20044;-43
2023/11/19 00:56:44;;;;;;;11.55;6.50;;;;;;;4.86;100.00;100812.06;5111483;28;20073;-42
2023/11/19 00:59:13;;;;;;;11.00;6.07;;;;;;;4.92;100.00;100806.56;5111438;28;20043;-42
2023/11/19 01:01:41;;;;;;;12.18;6.75;;;;;;;4.87;100.00;100803.22;5111721;28;20048;-43
2023/11/19 01:04:10;;;;;;;10.48;6.40;;;;;;;4.89;100.00;100799.59;5111628;28;20109;-43
2023/11/19 01:06:38;;;;;;;10.52;6.13;;;;;;;4.84;100.00;100800.66;5112020;28;20446;-42
2023/11/19 01:09:17;;;;;;;11.25;6.60;;;;;;;4.77;100.00;100792.03;5111597;28;20500;-42
2023/11/19 01:11:46;;;;;;;10.48;6.15;;;;;;;4.68;100.00;100805.50;5115815;28;20048;-42
2023/11/19 01:14:15;;;;;;;11.95;6.80;;;;;;;4.73;100.00;100818.56;5115820;28;20043;-41
2023/11/19 01:16:44;;;;;;;11.10;6.60;;;;;;;4.72;100.00;100819.47;5115702;28;20209;-43
2023/11/19 01:19:12;;;;;;;11.27;6.55;;;;;;;4.57;100.00;100820.78;5115729;28;20079;-42
2023/11/19 01:21:45;;;;;;;12.35;6.97;;;;;;;4.42;100.00;100807.94;5115630;28;20111;-43
2023/11/19 01:24:14;;;;;;;10.35;6.22;;;;;;;4.55;100.00;100812.88;5115529;28;20047;-43
2023/11/19 01:26:45;;;;;;;11.50;6.32;;;;;;;4.50;100.00;100803.34;5115367;28;20039;-42
2023/11/19 01:29:15;;;;;;;12.15;6.28;;;;;;;4.57;100.00;100808.44;5115638;28;20138;-42
2023/11/19 01:31:46;;;;;;;10.65;5.80;;;;;;;4.52;100.00;100804.16;5115563;28;20047;-42
2023/11/19 01:34:15;;;;;;;12.30;6.97;;;;;;;4.60;100.00;100800.41;5115718;28;20130;-43
2023/11/19 01:36:44;;;;;;;12.50;7.22;;;;;;;4.69;100.00;100790.50;5115725;28;20149;-43
2023/11/19 01:39:15;;;;;;;12.82;6.70;;;;;;;4.69;100.00;100795.78;5115422;28;20459;-42
2023/11/19 01:41:44;;;;;;;12.57;6.53;;;;;;;4.36;100.00;100801.06;5115293;28;20043;-43
2023/11/19 01:44:13;;;;;;;12.05;6.72;;;;;;;4.28;100.00;100795.13;5115420;28;20142;-43
2023/11/19 01:46:45;;;;;;;11.88;6.63;;;;;;;4.42;100.00;100803.53;5115037;28;20595;-42
2023/11/19 01:49:15;;;;;;;11.73;6.97;;;;;;;4.50;100.00;100793.63;5115231;28;20071;-42
2023/11/19 01:51:44;;;;;;;13.30;6.85;;;;;;;4.60;100.00;100784.56;5114989;28;20101;-43
2023/11/19 01:54:15;;;;;;;13.80;6.95;;;;;;;4.57;100.00;100779.38;5114882;28;20044;-41
2023/11/19 01:56:44;;;;;;;12.73;6.88;;;;;;;4.23;100.00;100767.94;5115249;28;20349;-43
2023/11/19 01:59:14;;;;;;;12.13;7.32;;;;;;;4.14;100.00;100765.53;5114894;28;20052;-42
2023/11/19 02:01:46;;;;;;;14.00;7.38;;;;;;;4.25;100.00;100760.88;5115100;28;20089;-43
2023/11/19 02:04:15;;;;;;;13.57;7.43;;;;;;;4.26;100.00;100752.03;5114919;28;20058;-42
2023/11/19 02:06:44;;;;;;;12.27;7.43;;;;;;;4.29;100.00;100758.09;5114918;28;20138;-43
2023/11/19 02:09:13;;;;;;;15.48;7.53;;;;;;;4.38;100.00;100751.72;5115101;28;20047;-43
2023/11/19 02:11:41;;;;;;;12.43;7.28;;;;;;;4.35;100.00;100751.81;5114788;28;20048;-42
2023/11/19 02:14:10;;;;;;;13.43;7.55;;;;;;;4.37;100.00;100755.25;5114383;28;20104;-43
2023/11/19 02:16:39;;;;;;;14.13;7.47;;;;;;;4.25;100.00;100761.75;5114929;28;20079;-42
2023/11/19 02:19:10;;;;;;;14.00;7.50;;;;;;;4.24;100.00;100753.84;5114345;28;20078;-43
2023/11/19 02:21:38;;;;;;;11.85;6.57;;;;;;;4.24;100.00;100765.25;5114792;28;20071;-42
2023/11/19 02:24:08;;;;;;;16.08;8.07;;;;;;;4.18;100.00;100757.53;5114573;28;20135;-43
2023/11/19 02:26:40;;;;;;;13.15;7.40;;;;;;;4.14;100.00;100747.91;5114391;28;20071;-47
2023/11/19 02:29:10;;;;;;;14.05;7.75;;;;;;;4.05;100.00;100734.97;5114426;28;20477;-43
2023/11/19 02:31:38;;;;;;;14.20;7.88;;;;;;;4.07;100.00;100737.59;5114128;28;20050;-42
2023/11/19 02:34:07;;;;;;;15.95;8.48;;;;;;;4.09;100.00;100743.69;5114187;28;20492;-42
2023/11/19 02:36:35;;;;;;;15.98;7.78;;;;;;;4.08;100.00;100752.53;5114361;28;20168;-43
2023/11/19 02:39:09;;;;;;;15.90;7.93;;;;;;;4.22;100.00;100755.66;5114271;28;20044;-42
2023/11/19 02:41:39;;;;;;;13.07;7.88;;;;;;;4.15;100.00;100746.16;5114102;28;20088;-42
2023/11/19 02:44:08;;;;;;;15.07;7.78;;;;;;;4.22;100.00;100739.81;5113775;28;20465;-42
2023/11/19 02:46:37;;;;;;;15.82;8.43;;;;;;;4.33;100.00;100729.81;5114210;28;20090;-43
2023/11/19 02:49:06;;;;;;;15.70;8.02;;;;;;;4.30;100.00;100727.28;5114402;28;20095;-43
2023/11/19 02:51:35;;;;;;;18.10;8.95;;;;;;;4.09;100.00;100733.13;5113983;28;20104;-43
2023/11/19 02:54:04;;;;;;;17.38;9.00;;;;;;;4.09;100.00;100733.13;5113885;28;20050;-43
2023/11/19 02:56:36;;;;;;;14.60;7.97;;;;;;;3.91;100.00;100729.19;5113826;28;20086;-42
2023/11/19 02:59:14;;;;;;;16.65;8.85;;;;;;;3.97;100.00;100724.63;5113963;28;20043;-43
2023/11/19 03:01:50;;;;;;;18.00;9.25;;;;;;;4.08;100.00;100720.84;5113897;28;20126;-43
2023/11/19 03:04:20;;;;;;;15.77;9.15;;;;;;;4.07;100.00;100714.69;5113904;28;20135;-43
2023/11/19 03:06:48;;;;;;;18.85;9.13;;;;;;;3.98;100.00;100715.78;5113921;28;20046;-42
2023/11/19 03:09:16;;;;;;;16.98;9.30;;;;;;;3.77;100.00;100711.06;5113699;28;20055;-43
2023/11/19 03:11:44;;;;;;;19.45;9.95;;;;;;;3.87;100.00;100709.94;5113688;28;20485;-42
2023/11/19 03:14:13;;;;;;;17.02;9.90;;;;;;;3.95;100.00;100714.97;5113602;28;20100;-43
2023/11/19 03:16:41;;;;;;;19.15;9.25;;;;;;;3.92;100.00;100705.38;5113614;28;20047;-41
2023/11/19 03:19:11;;;;;;;21.52;10.25;;;;;;;3.93;100.00;100695.69;5113472;28;20051;-43
2023/11/19 03:21:52;;;;;;;17.73;9.75;;;;;;;3.86;100.00;100697.63;5113596;28;20074;-43
2023/11/19 03:24:20;;;;;;;18.25;9.57;;;;;;;3.71;100.00;100698.00;5113276;28;20039;-42
2023/11/19 03:26:50;;;;;;;20.05;10.68;;;;;;;3.60;100.00;100698.28;5113022;28;20513;-43
2023/11/19 03:29:18;;;;;;;18.40;9.88;;;;;;;3.61;100.00;100699.16;5113515;28;20127;-43
2023/11/19 03:31:46;;;;;;;18.20;10.13;;;;;;;3.58;100.00;100699.22;5113045;28;20097;-43
2023/11/19 03:34:16;;;;;;;18.17;10.65;;;;;;;3.47;100.00;100698.59;5112694;28;20051;-43
2023/11/19 03:36:45;;;;;;;20.55;10.75;;;;;;;3.30;100.00;100709.56;5113165;28;20040;-43
2023/11/19 03:39:14;;;;;;;17.15;9.57;;;;;;;3.38;100.00;100699.72;5113162;28;20409;-43
2023/11/19 03:41:42;;;;;;;21.60;11.00;;;;;;;3.32;100.00;100676.13;5113109;28;20051;-43
2023/11/19 03:44:10;;;;;;;18.65;10.68;;;;;;;3.38;100.00;100666.28;5112913;28;20047;-46
2023/11/19 03:46:38;;;;;;;19.75;10.60;;;;;;;3.29;100.00;100671.78;5113283;28;20047;-43
2023/11/19 03:49:07;;;;;;;22.27;11.23;;;;;;;3.42;100.00;100659.16;5113238;28;20051;-43
2023/11/19 03:51:37;;;;;;;19.42;10.07;;;;;;;3.59;100.00;100653.47;5112805;28;20051;-43
2023/11/19 03:54:07;;;;;;;21.08;10.63;;;;;;;3.70;100.00;100651.44;5112922;28;20112;-43
2023/11/19 03:56:36;;;;;;;19.20;10.27;;;;;;;3.76;100.00;100640.69;5112968;28;20123;-43
2023/11/19 03:59:04;;;;;;;21.85;10.30;;;;;;;3.69;100.00;100640.00;5112725;28;20051;-43
2023/11/19 04:01:33;;;;;;;19.08;10.43;;;;;;;3.50;100.00;100643.16;5112447;28;20480;-43
2023/11/19 04:04:02;;;;;;;23.02;10.93;;;;;;;3.46;100.00;100639.72;5112863;28;20408;-43
2023/11/19 04:06:30;;;;;;;20.20;10.95;;;;;;;3.43;100.00;100638.03;5112765;28;20095;-43
2023/11/19 04:09:00;;;;;;;20.55;10.75;;;;;;;3.39;100.00;100639.03;5112533;28;20465;-43
2023/11/19 04:11:29;;;;;;;20.25;10.85;;;;;;;3.25;100.00;100632.34;5112720;28;20079;-42
2023/11/19 04:13:57;;;;;;;19.90;10.52;;;;;;;3.45;100.00;100622.16;5112604;28;20047;-41
2023/11/19 04:16:29;;;;;;;20.67;10.95;;;;;;;3.52;100.00;100615.84;5112521;28;20048;-42
2023/11/19 04:18:57;;;;;;;22.45;11.07;;;;;;;3.61;100.00;100625.28;5112573;28;20127;-42
2023/11/19 04:21:26;;;;;;;19.40;10.52;;;;;;;3.56;100.00;100612.19;5112295;28;20126;-43
2023/11/19 04:23:55;;;;;;;19.73;10.45;;;;;;;3.66;100.00;100623.38;5112688;28;20044;-43
2023/11/19 04:26:24;;;;;;;20.63;10.30;;;;;;;3.84;100.00;100616.75;5112506;28;20066;-43
2023/11/19 04:28:53;;;;;;;19.95;10.50;;;;;;;3.71;100.00;100603.91;5111922;28;20056;-43
2023/11/19 04:31:21;;;;;;;18.67;10.27;;;;;;;3.66;100.00;100612.81;5112282;28;20105;-43
2023/11/19 04:33:49;;;;;;;19.92;10.73;;;;;;;3.72;100.00;100610.03;5112236;28;20458;-42
2023/11/19 04:36:20;;;;;;;17.75;9.98;;;;;;;3.57;100.00;100597.25;5112113;28;20123;-42
2023/11/19 04:38:48;;;;;;;20.65;10.23;;;;;;;3.39;100.00;100601.25;5111949;28;20048;-45
2023/11/19 04:41:17;;;;;;;18.88;10.18;;;;;;;3.31;100.00;100614.59;5112115;28;20052;-43
2023/11/19 04:43:46;;;;;;;19.55;10.80;;;;;;;3.25;100.00;100622.66;5111478;28;20116;-45
2023/11/19 04:46:15;;;;;;;17.98;11.02;;;;;;;3.41;100.00;100634.56;5111850;28;20090;-43
2023/11/19 04:48:44;;;;;;;19.90;10.27;;;;;;;3.58;100.00;100638.56;5111715;28;20134;-44
2023/11/19 04:51:12;;;;;;;21.15;11.63;;;;;;;3.55;100.00;100641.25;5111802;28;20523;-43
2023/11/19 04:53:40;;;;;;;21.60;11.20;;;;;;;3.64;100.00;100641.03;5111708;28;20139;-42
2023/11/19 04:56:10;;;;;;;18.42;10.50;;;;;;;3.71;100.00;100648.75;5111625;28;20421;-43
2023/11/19 04:58:38;;;;;;;20.30;10.30;;;;;;;3.79;100.00;100648.56;5111643;28;20485;-43
2023/11/19 05:01:15;;;;;;;17.40;10.05;;;;;;;3.92;100.00;100647.31;5111952;28;20047;-43
2023/11/19 05:03:43;;;;;;;20.23;10.70;;;;;;;3.93;100.00;100643.78;5111863;28;20083;-43
2023/11/19 05:06:11;;;;;;;20.17;10.73;;;;;;;3.91;100.00;100640.31;5111526;28;20043;-44
2023/11/19 05:08:40;;;;;;;20.45;10.23;;;;;;;3.93;100.00;100633.22;5111732;28;20075;-42
2023/11/19 05:11:10;;;;;;;20.73;10.60;;;;;;;3.72;100.00;100639.06;5111470;28;20476;-42
2023/11/19 05:13:38;;;;;;;19.35;10.25;;;;;;;3.56;100.00;100642.97;5111563;28;20493;-45
2023/11/19 05:16:09;;;;;;;19.17;10.48;;;;;;;3.66;100.00;100653.25;5111841;28;20047;-43
2023/11/19 05:18:38;;;;;;;18.55;10.15;;;;;;;3.73;100.00;100646.06;5111874;28;20044;-41
2023/11/19 05:21:09;;;;;;;17.92;10.43;;;;;;;3.75;100.00;100652.16;5111432;28;20054;-44
2023/11/19 05:23:38;;;;;;;18.65;10.48;;;;;;;3.82;100.00;100645.81;5111711;28;20400;-43
2023/11/19 05:26:07;;;;;;;23.63;11.18;;;;;;;3.65;100.00;100632.19;5111608;28;20085;-43
2023/11/19 05:28:36;;;;;;;20.30;10.90;;;;;;;3.34;100.00;100638.25;5111283;28;20047;-42
2023/11/19 05:31:04;;;;;;;22.50;11.40;;;;;;;3.25;100.00;100643.75;5111483;28;20075;-43
2023/11/19 05:33:34;;;;;;;20.35;10.93;;;;;;;3.27;100.00;100631.38;5111854;28;20052;-43
2023/11/19 05:36:03;;;;;;;21.60;11.27;;;;;;;3.12;100.00;100634.41;5111587;28;20522;-42
2023/11/19 05:38:32;;;;;;;21.60;11.60;;;;;;;2.88;100.00;100634.06;5111625;28;20048;-43
2023/11/19 05:41:00;;;;;;;20.65;11.25;;;;;;;2.97;100.00;100632.13;5111341;28;20044;-44
2023/11/19 05:43:28;;;;;;;25.00;12.82;;;;;;;3.27;100.00;100630.53;5111363;28;20089;-43
2023/11/19 05:45:57;;;;;;;22.75;11.48;;;;;;;3.29;100.00;100629.59;5111192;28;20114;-43
2023/11/19 05:48:27;;;;;;;22.85;11.93;;;;;;;3.23;100.00;100635.00;5111058;28;20554;-43
2023/11/19 05:50:57;;;;;;;22.08;11.15;;;;;;;3.02;100.00;100627.63;5111069;28;20573;-43
2023/11/19 05:53:25;;;;;;;23.25;12.05;;;;;;;2.99;100.00;100630.31;5111635;28;20100;-43
2023/11/19 05:55:55;;;;;;;21.80;11.32;;;;;;;3.24;100.00;100639.38;5112554;28;20048;-43
2023/11/19 05:58:28;;;;;;;21.55;11.05;;;;;;;3.17;100.00;100635.16;5115413;28;20055;-44
2023/11/19 06:00:57;;;;;;;23.73;11.57;;;;;;;3.04;100.00;100628.44;5114786;28;20151;-46
2023/11/19 06:03:25;;;;;;;21.48;11.48;;;;;;;3.23;100.00;100629.75;5114960;28;20048;-43
2023/11/19 06:05:54;;;;;;;23.60;11.38;;;;;;;3.31;100.00;100633.06;5114923;28;20077;-45
2023/11/19 06:08:24;;;;;;;22.58;12.27;;;;;;;3.43;100.00;100650.34;5114686;28;20408;-43
2023/11/19 06:10:52;;;;;;;24.13;12.38;;;;;;;3.42;100.00;100632.78;5114788;28;20083;-43
2023/11/19 06:13:21;;;;;;;24.52;12.55;;;;;;;3.13;100.00;100621.19;5114659;28;20409;-43
2023/11/19 06:15:52;;;;;;;24.27;12.38;;;;;;;3.08;100.00;100619.53;5114995;28;20116;-44
2023/11/19 06:18:21;;;;;;;23.85;12.98;;;;;;;3.37;100.00;100609.16;5114893;28;20044;-42
2023/11/19 06:20:49;;;;;;;22.73;11.70;;;;;;;3.35;100.00;100612.75;5114883;28;20054;-43
2023/11/19 06:23:17;;;;;;;23.83;12.48;;;;;;;3.16;100.00;100612.34;5114652;28;20411;-43
2023/11/19 06:25:47;;;;;;;23.65;12.70;;;;;;;3.00;100.00;100603.94;5114650;28;20093;-43
2023/11/19 06:28:16;;;;;;;26.70;12.95;;;;;;;3.10;100.00;100596.69;5114323;28;20489;-45
2023/11/19 06:30:44;;;;;;;23.45;13.23;;;;;;;3.00;100.00;100601.31;5114462;28;20497;-42
2023/11/19 06:33:16;;;;;;;22.75;12.65;;;;;;;2.96;100.00;100598.75;5114468;28;20067;-42
2023/11/19 06:35:45;;;;;;;24.30;12.82;;;;;;;3.12;100.00;100597.50;5114227;28;20503;-43
2023/11/19 06:38:13;;;;;;;23.75;12.93;;;;;;;3.22;100.00;100591.09;5114667;28;20476;-43
2023/11/19 06:40:42;;;;;;;23.35;12.45;;;;;;;3.06;100.00;100590.59;5114178;28;20047;-43
2023/11/19 06:43:12;;;;;;;25.25;12.43;;;;;;;3.16;100.00;100591.25;5114412;28;20075;-43
2023/11/19 06:45:40;;;;;;;24.00;13.23;;;;;;;3.32;100.00;100587.34;5114240;28;20481;-42
2023/11/19 06:48:08;;;;;;;22.85;12.27;;;;;;;3.46;100.00;100581.69;5114194;28;20058;-42
2023/11/19 06:50:36;;;;;;;23.38;12.80;;;;;;;3.54;100.00;100584.13;5114156;28;20040;-43
2023/11/19 06:53:06;;;;;;;23.67;12.82;;;;;;;3.34;100.00;100590.78;5114124;28;20364;-43
2023/11/19 06:55:34;;;;;;;23.75;13.00;;;;;;;3.11;100.00;100572.91;5113961;28;20055;-44
2023/11/19 06:58:03;;;;;;;26.33;14.20;;;;;;;3.24;100.00;100583.16;5114178;28;20083;-44
2023/11/19 07:00:35;;;;;;;23.77;12.50;;;;;;;3.62;100.00;100579.53;5114111;28;20051;-42
2023/11/19 07:03:05;;;;;;;24.63;12.73;;;;;;;3.79;100.00;100577.31;5114165;28;20072;-45
2023/11/19 07:05:35;;;;;;;27.73;13.93;;;;;;;3.68;100.00;100579.38;5113652;28;20171;-43
2023/11/19 07:08:04;;;;;;;26.60;13.20;;;;;;;3.82;100.00;100585.13;5112508;28;20079;-42
2023/11/19 07:10:33;;;;;;;25.85;13.40;;;;;;;3.70;100.00;100586.34;5113832;28;20039;-43
2023/11/19 07:13:02;;;;;;;23.13;12.73;;;;;;;3.58;100.00;100588.44;5114066;28;20044;-43
2023/11/19 07:15:30;;;;;;;23.27;13.38;;;;;;;3.79;100.00;100582.59;5113456;28;20108;-43
2023/11/19 07:18:00;;;;;;;24.70;12.95;;;;;;;3.72;100.00;100584.53;5113484;28;20451;-44
2023/11/19 07:20:31;;;;;;;24.55;13.45;;;;;;;3.82;100.00;100579.00;5113837;28;20052;-44
2023/11/19 07:22:59;;;;;;;25.00;12.75;;;;;;;3.70;100.00;100590.75;5113495;28;20128;-43
2023/11/19 07:25:27;;;;;;;26.00;12.18;;;;;;;3.64;100.00;100588.25;5113279;28;20100;-44
2023/11/19 07:27:56;;;;;;;22.95;12.13;;;;;;;3.52;100.00;100593.88;5113320;28;20062;-44
2023/11/19 07:30:24;;;;;;;23.15;12.45;;;;;;;3.82;100.00;100590.41;5113279;28;20353;-42
2023/11/19 07:32:52;;;;;;;20.70;11.90;;;;;;;3.88;100.00;100592.91;5113256;28;20454;-43
2023/11/19 07:35:22;;;;;;;20.73;11.80;;;;;;;4.02;100.00;100585.44;5113043;28;20043;-43
2023/11/19 07:37:51;;;;;;;21.38;12.13;;;;;;;4.13;100.00;100579.00;5113569;28;20059;-43
2023/11/19 07:40:20;;;;;;;22.92;11.90;;;;;;;4.17;100.00;100588.59;5113584;28;20097;-44
2023/11/19 07:42:48;;;;;;;21.80;11.85;;;;;;;4.07;100.00;100605.59;5113107;28;20096;-43
2023/11/19 07:45:17;;;;;;;19.08;11.40;;;;;;;4.22;100.00;100610.41;5113230;28;20050;-43
2023/11/19 07:47:46;;;;;;;20.42;11.23;;;;;;;4.23;100.00;100614.78;5113407;28;20086;-43
2023/11/19 07:50:19;;;;;;;20.30;11.48;;;;;;;3.94;100.00;100608.53;5113270;28;20044;-42
2023/11/19 07:52:49;;;;;;;22.38;11.55;;;;;;;3.94;100.00;100607.69;5112976;28;20097;-44
2023/11/19 07:55:17;;;;;;;19.00;10.82;;;;;;;3.71;100.00;100600.41;5113093;28;20048;-42
2023/11/19 07:57:45;;;;;;;23.92;11.88;;;;;;;3.64;100.00;100588.25;5113146;28;20051;-43
2023/11/19 08:00:14;;;;;;;20.55;11.45;;;;;;;4.03;100.00;100581.91;5113141;28;20466;-43
2023/11/19 08:02:43;;;;;;;20.80;12.13;;;;;;;4.23;100.00;100569.91;5113167;28;20048;-43
2023/11/19 08:05:12;;;;;;;23.42;12.40;;;;;;;4.36;100.00;100567.78;5113083;28;20058;-43
2023/11/19 08:07:41;;;;;;;22.40;11.85;;;;;;;4.11;100.00;100563.22;5113091;28;20054;-42
2023/11/19 08:10:11;;;;;;;21.58;11.95;;;;;;;4.19;100.00;100555.94;5112735;28;20062;-43
2023/11/19 08:12:39;;;;;;;21.25;11.70;;;;;;;4.32;100.00;100541.44;5112540;28;20039;-43
2023/11/19 08:15:09;;;;;;;23.63;11.82;;;;;;;4.05;100.00;100536.97;5112887;28;20039;-43
2023/11/19 08:17:37;;;;;;;20.55;11.35;;;;;;;3.99;100.00;100535.41;5112903;28;20139;-42
2023/11/19 08:20:10;;;;;;;19.50;11.35;;;;;;;4.23;100.00;100530.28;5112231;28;20480;-43
2023/11/19 08:22:38;;;;;;;21.08;11.85;;;;;;;3.94;100.00;100518.81;5112403;28;20044;-45
2023/11/19 08:25:08;;;;;;;20.25;11.82;;;;;;;4.00;100.00;100497.53;5112727;28;20040;-42
2023/11/19 08:27:37;;;;;;;22.85;11.35;;;;;;;4.28;100.00;100478.22;5112201;28;20051;-43
2023/11/19 08:30:07;;;;;;;22.58;11.65;;;;;;;4.47;100.00;100508.44;5112544;28;20047;-43
2023/11/19 08:32:35;;;;;;;20.52;11.93;;;;;;;4.09;100.00;100511.38;5112488;28;20054;-42
2023/11/19 08:35:04;;;;;;;19.10;11.35;;;;;;;4.53;100.00;100518.78;5112179;28;20476;-43
2023/11/19 08:37:32;;;;;;;22.73;11.73;;;;;;;4.77;100.00;100529.53;5112080;28;20047;-43
2023/11/19 08:40:01;;;;;;;19.77;11.35;;;;;;;4.87;100.00;100525.66;5112249;28;20044;-42
2023/11/19 08:42:29;;;;;;;23.52;12.02;;;;;;;4.79;100.00;100501.25;5112171;28;20074;-42
2023/11/19 08:44:59;;;;;;;20.27;12.05;;;;;;;4.99;100.00;100506.75;5112339;28;20552;-43
2023/11/19 08:47:27;;;;;;;23.45;11.15;;;;;;;5.04;100.00;100504.84;5112150;28;20051;-44
2023/11/19 08:49:55;;;;;;;20.98;11.77;;;;;;;5.21;100.00;100495.44;5112223;28;20054;-43
2023/11/19 08:52:26;;;;;;;22.98;12.52;;;;;;;5.01;100.00;100506.69;5111855;28;20131;-43
2023/11/19 08:54:55;;;;;;;22.35;11.90;;;;;;;5.01;100.00;100523.41;5112182;28;20154;-42
2023/11/19 08:57:23;;;;;;;23.20;11.80;;;;;;;5.01;100.00;100518.13;5112163;28;20122;-43
2023/11/19 08:59:51;;;;;;;20.88;11.70;;;;;;;4.77;100.00;100506.59;5112204;28;20115;-42
2023/11/19 09:02:21;;;;;;;24.83;12.38;;;;;;;4.86;100.00;100501.00;5112049;28;20180;-42
2023/11/19 09:04:49;;;;;;;23.02;12.23;;;;;;;4.60;100.00;100519.47;5111995;28;20105;-43
2023/11/19 09:07:21;;;;;;;22.27;12.23;;;;;;;4.44;100.00;100528.78;5112309;28;20044;-42
2023/11/19 09:09:49;;;;;;;18.33;10.95;;;;;;;4.43;100.00;100522.63;5112319;28;20051;-44
2023/11/19 09:12:19;;;;;;;20.70;11.88;;;;;;;4.49;100.00;100519.81;5112035;28;20040;-43
2023/11/19 09:14:49;;;;;;;22.08;12.13;;;;;;;4.52;100.00;100511.78;5111650;28;20130;-42
2023/11/19 09:17:18;;;;;;;20.33;11.75;;;;;;;4.67;100.00;100536.00;5111676;28;20048;-42
2023/11/19 09:19:48;;;;;;;23.33;12.70;;;;;;;4.87;100.00;100536.25;5111995;28;20079;-42
2023/11/19 09:22:16;;;;;;;21.30;11.65;;;;;;;4.87;100.00;100544.16;5112037;28;20087;-41
2023/11/19 09:24:45;;;;;;;18.48;10.88;;;;;;;4.80;100.00;100532.91;5111747;28;20077;-42
2023/11/19 09:27:16;;;;;;;20.58;11.27;;;;;;;4.66;100.00;100519.28;5111690;28;20116;-44
2023/11/19 09:29:45;;;;;;;20.88;11.02;;;;;;;4.51;100.00;100531.19;5111597;28;20052;-43
2023/11/19 09:32:14;;;;;;;21.85;12.10;;;;;;;4.59;100.00;100520.38;5115555;28;20043;-43
2023/11/19 09:34:42;;;;;;;21.35;11.80;;;;;;;4.57;100.00;100520.44;5097685;28;20047;-43
2023/11/19 09:37:12;;;;;;;20.40;12.00;;;;;;;4.70;100.00;100514.75;5116028;28;20059;-42
2023/11/19 09:39:46;;;;;;;19.23;11.40;;;;;;;4.76;100.00;100510.16;5116281;28;20051;-42
2023/11/19 09:42:15;;;;;;;30.90;16.15;;;;;;;4.94;100.00;100507.84;5115680;28;20043;-45
2023/11/19 09:44:44;;;;;;;28.42;15.70;;;;;;;4.82;100.00;100503.78;5115807;28;20130;-48
2023/11/19 09:47:13;;;;;;;22.48;13.20;;;;;;;4.97;100.00;100503.31;5115798;28;20104;-44
2023/11/19 09:49:42;;;;;;;28.35;14.90;;;;;;;5.04;100.00;100496.91;5115985;28;20135;-43
2023/11/19 09:52:12;;;;;;;25.15;13.48;;;;;;;5.07;100.00;100488.84;5115596;28;20481;-45
2023/11/19 09:54:41;;;;;;;21.27;12.00;;;;;;;5.14;100.00;100485.09;5116083;28;20079;-43
2023/11/19 09:57:12;;;;;;;19.27;10.55;;;;;;;5.04;100.00;100485.47;5115582;28;20055;-43
2023/11/19 09:59:45;;;;;;;20.95;12.02;;;;;;;4.95;100.00;100470.78;5115626;28;20075;-42
2023/11/19 10:02:15;;;;;;;19.90;10.93;;;;;;;4.83;100.00;100468.53;5115737;28;20160;-44
2023/11/19 10:04:45;;;;;;;19.05;11.60;;;;;;;4.89;100.00;100463.03;5115876;28;20040;-42
2023/11/19 10:07:14;;;;;;;19.35;11.15;;;;;;;4.87;100.00;100462.22;5115693;28;20079;-44
2023/11/19 10:09:43;;;;;;;19.90;10.68;;;;;;;4.82;100.00;100466.78;5115653;28;20412;-44
2023/11/19 10:12:11;;;;;;;18.65;10.95;;;;;;;4.98;100.00;100449.50;5115408;28;20048;-42
2023/11/19 10:14:42;;;;;;;19.80;12.15;;;;;;;4.97;100.00;100437.22;5115468;28;20492;-53
2023/11/19 10:17:10;;;;;;;22.20;12.40;;;;;;;4.97;100.00;100434.56;5115785;28;20071;-46
2023/11/19 10:19:41;;;;;;;21.25;11.73;;;;;;;4.80;100.00;100436.91;5115559;28;20044;-45
2023/11/19 10:22:09;;;;;;;23.05;12.63;;;;;;;4.96;100.00;100437.28;5115092;28;20481;-42
2023/11/19 10:24:40;;;;;;;19.15;11.48;;;;;;;5.00;100.00;100445.03;5114855;28;20039;-43
2023/11/19 10:27:16;;;;;;;18.52;11.35;;;;;;;4.88;100.00;100437.53;5115015;28;20051;-43
2023/11/19 10:29:46;;;;;;;20.00;11.38;;;;;;;4.85;100.00;100438.50;5114833;28;20384;-42
2023/11/19 10:32:15;;;;;;;21.00;11.57;;;;;;;5.02;100.00;100440.56;5114916;28;20104;-42
2023/11/19 10:35:06;;;;;;;20.17;11.95;;;;;;;5.04;100.00;100436.09;5114884;28;20071;-43
2023/11/19 10:37:37;;;;;;;20.92;11.85;;;;;;;5.05;100.00;100437.81;5114848;28;20055;-43
2023/11/19 10:40:10;;;;;;;19.85;11.32;;;;;;;5.03;100.00;100444.94;5114844;28;20050;-42
2023/11/19 10:42:40;;;;;;;19.73;11.85;;;;;;;5.16;100.00;100446.22;5114731;28;20047;-43
2023/11/19 10:45:23;;;;;;;21.58;12.73;;;;;;;5.17;100.00;100447.09;5114003;28;20568;-42
2023/11/19 10:47:52;;;;;;;;;;;;;;;5.25;100.00;100444.19;5114772;28;20127;-41
2023/11/19 10:50:20;;;;;;;20.83;12.13;;;;;;;5.27;100.00;100431.78;5113946;28;20395;-43
2023/11/19 10:52:50;;;;;;;19.85;11.52;;;;;;;5.34;100.00;100428.00;5114046;28;20509;-41
2023/11/19 10:55:27;;;;;;;18.77;11.70;;;;;;;5.60;100.00;100417.34;5113853;28;20043;-42
2023/11/19 10:58:00;;;;;;;19.92;11.25;;;;;;;5.74;100.00;100415.03;5114055;28;20047;-43
2023/11/19 11:00:30;;;;;;;;;;;;;;;5.82;100.00;100404.16;5114415;28;20090;-42
2023/11/19 11:03:02;;;;;;;20.58;12.13;;;;;;;5.68;100.00;100390.56;5113871;28;19973;-41
2023/11/19 11:05:34;;;;;;;18.45;11.68;;;;;;;5.72;100.00;100397.47;5112924;28;20039;-44
2023/11/19 11:08:05;;;;;;;22.10;12.85;;;;;;;5.54;100.00;100385.78;5112049;28;20631;-45
2023/11/19 11:10:40;;;;;;;20.58;12.48;;;;;;;5.35;100.00;100382.09;5113870;28;20079;-42
2023/11/19 11:13:27;;;;;;;19.13;11.88;;;;;;;5.28;100.00;100375.31;5112021;28;20044;-42
2023/11/19 11:15:57;;;;;;;19.70;12.27;;;;;;;5.52;100.00;100362.97;5113475;28;20477;-42
2023/11/19 11:18:26;;;;;;;19.33;11.35;;;;;;;5.49;100.00;100368.34;5113289;28;20047;-41
2023/11/19 11:21:01;;;;;;;19.90;12.05;;;;;;;5.29;100.00;100363.81;5113656;28;20074;-42
2023/11/19 11:24:02;;;;;;;23.38;13.00;;;;;;;5.13;100.00;100364.38;5113683;28;20056;-41